createdAt,value
2017-12-16T00:00:46.114Z,995.92
2017-12-16T00:01:56.049Z,995.93
2017-12-16T00:03:05.485Z,995.97
2017-12-16T00:04:15.431Z,995.97
2017-12-16T00:05:25.112Z,995.95
2017-12-16T00:06:34.806Z,995.94
2017-12-16T00:07:44.230Z,995.99
2017-12-16T00:08:54.164Z,995.95
2017-12-16T00:10:04.163Z,996.01
2017-12-16T00:11:13.853Z,995.97
2017-12-16T00:12:23.796Z,996
2017-12-16T00:13:33.538Z,996
2017-12-16T00:14:43.224Z,996.01
2017-12-16T00:15:53.166Z,996
2017-12-16T00:17:03.121Z,995.98
2017-12-16T00:18:13.071Z,995.97
2017-12-16T00:19:22.758Z,995.99
2017-12-16T00:20:32.443Z,995.99
2017-12-16T00:21:42.405Z,995.99
2017-12-16T00:22:52.088Z,996
2017-12-16T00:24:02.036Z,996
2017-12-16T00:25:11.483Z,996.03
2017-12-16T00:26:21.159Z,996.05
2017-12-16T00:27:30.851Z,996.07
2017-12-16T00:28:40.787Z,996.1
2017-12-16T00:29:50.490Z,996.12
2017-12-16T00:31:00.170Z,996.16
2017-12-16T00:32:10.113Z,996.22
2017-12-16T00:33:20.059Z,996.22
2017-12-16T00:34:30.009Z,996.22
2017-12-16T00:35:39.425Z,996.22
2017-12-16T00:36:49.358Z,996.23
2017-12-16T00:37:59.373Z,996.26
2017-12-16T00:39:09.334Z,996.25
2017-12-16T00:40:18.763Z,996.24
2017-12-16T00:41:28.712Z,996.28
2017-12-16T00:42:38.394Z,996.27
2017-12-16T00:43:48.126Z,996.26
2017-12-16T00:44:58.133Z,996.24
2017-12-16T00:46:08.080Z,996.26
2017-12-16T00:47:18.022Z,996.23
2017-12-16T00:48:27.971Z,996.21
2017-12-16T00:49:37.676Z,996.15
2017-12-16T00:50:47.629Z,996.21
2017-12-16T00:51:57.572Z,996.2
2017-12-16T00:53:06.998Z,996.2
2017-12-16T00:54:16.940Z,996.23
2017-12-16T00:55:26.634Z,996.24
2017-12-16T00:56:36.332Z,996.25
2017-12-16T00:57:45.751Z,996.25
2017-12-16T00:58:55.696Z,996.29
2017-12-16T01:00:05.643Z,996.23
2017-12-16T01:01:15.581Z,996.26
2017-12-16T01:02:25.535Z,996.3
2017-12-16T01:03:35.493Z,996.27
2017-12-16T01:04:44.932Z,996.25
2017-12-16T01:05:54.368Z,996.24
2017-12-16T01:07:04.313Z,996.29
2017-12-16T01:08:14.012Z,996.25
2017-12-16T01:09:23.955Z,996.27
2017-12-16T01:10:33.895Z,996.29
2017-12-16T01:11:43.842Z,996.28
2017-12-16T01:12:53.525Z,996.26
2017-12-16T01:14:03.261Z,996.23
2017-12-16T01:15:13.198Z,996.3
2017-12-16T01:16:23.153Z,996.27
2017-12-16T01:17:32.854Z,996.3
2017-12-16T01:18:42.287Z,996.32
2017-12-16T01:19:51.737Z,996.29
2017-12-16T01:21:01.703Z,996.31
2017-12-16T01:22:11.657Z,996.32
2017-12-16T01:23:21.354Z,996.32
2017-12-16T01:24:31.300Z,996.37
2017-12-16T01:25:41.250Z,996.37
2017-12-16T01:26:50.476Z,996.39
2017-12-16T01:28:00.424Z,996.38
2017-12-16T01:29:10.373Z,996.36
2017-12-16T01:30:20.319Z,996.38
2017-12-16T01:31:30.018Z,996.36
2017-12-16T01:32:39.969Z,996.4
2017-12-16T01:33:49.936Z,996.37
2017-12-16T01:34:59.628Z,996.37
2017-12-16T01:36:09.338Z,996.39
2017-12-16T01:37:19.278Z,996.36
2017-12-16T01:38:29.218Z,996.36
2017-12-16T01:39:38.914Z,996.4
2017-12-16T01:40:48.597Z,996.43
2017-12-16T01:41:58.532Z,996.45
2017-12-16T01:43:08.478Z,996.43
2017-12-16T01:44:18.175Z,996.44
2017-12-16T01:45:28.134Z,996.45
2017-12-16T01:46:37.828Z,996.5
2017-12-16T01:47:47.515Z,996.47
2017-12-16T01:48:57.201Z,996.51
2017-12-16T01:50:07.135Z,996.49
2017-12-16T01:51:16.826Z,996.51
2017-12-16T01:52:26.789Z,996.49
2017-12-16T01:53:35.966Z,996.47
2017-12-16T01:54:46.157Z,996.53
2017-12-16T01:55:56.115Z,996.5
2017-12-16T01:57:06.058Z,996.47
2017-12-16T01:58:15.745Z,996.51
2017-12-16T01:59:25.690Z,996.55
2017-12-16T02:00:35.890Z,996.56
2017-12-16T02:01:45.316Z,996.51
2017-12-16T02:02:54.999Z,996.49
2017-12-16T02:04:04.424Z,996.51
2017-12-16T02:05:14.135Z,996.51
2017-12-16T02:06:24.068Z,996.5
2017-12-16T02:07:34.012Z,996.55
2017-12-16T02:08:43.439Z,996.54
2017-12-16T02:09:52.862Z,996.52
2017-12-16T02:11:02.547Z,996.49
2017-12-16T02:12:11.976Z,996.53
2017-12-16T02:13:21.663Z,996.51
2017-12-16T02:14:31.605Z,996.53
2017-12-16T02:15:41.297Z,996.56
2017-12-16T02:16:50.972Z,996.53
2017-12-16T02:18:00.657Z,996.53
2017-12-16T02:19:10.596Z,996.49
2017-12-16T02:20:20.551Z,996.47
2017-12-16T02:21:30.231Z,996.53
2017-12-16T02:22:39.650Z,996.5
2017-12-16T02:23:49.596Z,996.55
2017-12-16T02:24:59.293Z,996.54
2017-12-16T02:26:09.239Z,996.56
2017-12-16T02:27:18.413Z,996.57
2017-12-16T02:28:28.106Z,996.62
2017-12-16T02:29:37.805Z,996.62
2017-12-16T02:30:47.770Z,996.63
2017-12-16T02:31:57.745Z,996.65
2017-12-16T02:33:07.942Z,996.67
2017-12-16T02:34:17.646Z,996.67
2017-12-16T02:35:27.076Z,996.64
2017-12-16T02:36:37.022Z,996.63
2017-12-16T02:37:46.447Z,996.62
2017-12-16T02:38:55.869Z,996.66
2017-12-16T02:40:05.041Z,996.61
2017-12-16T02:41:14.749Z,996.62
2017-12-16T02:42:24.453Z,996.62
2017-12-16T02:43:34.658Z,996.58
2017-12-16T02:44:44.339Z,996.57
2017-12-16T02:45:53.766Z,996.58
2017-12-16T02:47:03.458Z,996.63
2017-12-16T02:48:13.405Z,996.6
2017-12-16T02:49:23.426Z,996.6
2017-12-16T02:50:33.374Z,996.64
2017-12-16T02:51:43.319Z,996.64
2017-12-16T02:52:53.275Z,996.63
2017-12-16T02:54:03.218Z,996.65
2017-12-16T02:55:12.898Z,996.66
2017-12-16T02:56:22.599Z,996.65
2017-12-16T02:57:32.051Z,996.67
2017-12-16T02:58:41.732Z,996.67
2017-12-16T02:59:51.432Z,996.67
2017-12-16T03:01:01.122Z,996.66
2017-12-16T03:02:10.548Z,996.64
2017-12-16T03:03:20.232Z,996.69
2017-12-16T03:04:29.937Z,996.69
2017-12-16T03:05:39.899Z,996.69
2017-12-16T03:06:49.324Z,996.68
2017-12-16T03:07:59.013Z,996.67
2017-12-16T03:09:07.920Z,996.65
2017-12-16T03:10:17.605Z,996.66
2017-12-16T03:11:26.772Z,996.68
2017-12-16T03:12:36.718Z,996.68
2017-12-16T03:13:46.657Z,996.71
2017-12-16T03:14:56.338Z,996.71
2017-12-16T03:16:06.023Z,996.67
2017-12-16T03:17:15.970Z,996.63
2017-12-16T03:18:25.387Z,996.64
2017-12-16T03:19:35.085Z,996.67
2017-12-16T03:20:45.039Z,996.64
2017-12-16T03:21:54.719Z,996.62
2017-12-16T03:23:04.411Z,996.69
2017-12-16T03:24:14.356Z,996.65
2017-12-16T03:25:24.039Z,996.62
2017-12-16T03:26:33.736Z,996.66
2017-12-16T03:27:43.424Z,996.59
2017-12-16T03:28:52.854Z,996.59
2017-12-16T03:30:02.017Z,996.65
2017-12-16T03:31:11.454Z,996.62
2017-12-16T03:32:21.401Z,996.65
2017-12-16T03:33:31.339Z,996.64
2017-12-16T03:34:41.328Z,996.69
2017-12-16T03:35:51.021Z,996.64
2017-12-16T03:37:00.960Z,996.67
2017-12-16T03:38:10.377Z,996.66
2017-12-16T03:39:20.061Z,996.68
2017-12-16T03:40:29.748Z,996.7
2017-12-16T03:41:39.430Z,996.66
2017-12-16T03:42:49.458Z,996.73
2017-12-16T03:43:58.889Z,996.71
2017-12-16T03:45:08.580Z,996.68
2017-12-16T03:46:18.271Z,996.71
2017-12-16T03:47:27.709Z,996.72
2017-12-16T03:48:37.713Z,996.69
2017-12-16T03:49:47.402Z,996.69
2017-12-16T03:50:56.583Z,996.75
2017-12-16T03:52:06.009Z,996.68
2017-12-16T03:53:15.695Z,996.71
2017-12-16T03:54:25.655Z,996.7
2017-12-16T03:55:35.591Z,996.69
2017-12-16T03:56:44.768Z,996.68
2017-12-16T03:57:54.226Z,996.71
2017-12-16T03:59:03.912Z,996.71
2017-12-16T04:00:13.349Z,996.66
2017-12-16T04:01:23.287Z,996.71
2017-12-16T04:02:32.975Z,996.73
2017-12-16T04:03:42.413Z,996.69
2017-12-16T04:04:51.849Z,996.72
2017-12-16T04:06:01.803Z,996.73
2017-12-16T04:07:11.498Z,996.79
2017-12-16T04:08:21.179Z,996.79
2017-12-16T04:09:31.114Z,996.81
2017-12-16T04:10:40.856Z,996.81
2017-12-16T04:11:50.290Z,996.83
2017-12-16T04:12:59.975Z,996.85
2017-12-16T04:14:09.401Z,996.83
2017-12-16T04:15:18.820Z,996.81
2017-12-16T04:16:28.820Z,996.88
2017-12-16T04:17:38.773Z,996.87
2017-12-16T04:18:48.708Z,996.83
2017-12-16T04:19:58.647Z,996.82
2017-12-16T04:21:08.578Z,996.81
2017-12-16T04:22:18.000Z,996.78
2017-12-16T04:23:27.718Z,996.81
2017-12-16T04:24:37.665Z,996.82
2017-12-16T04:25:47.618Z,996.82
2017-12-16T04:26:57.313Z,996.78
2017-12-16T04:28:07.000Z,996.78
2017-12-16T04:29:16.935Z,996.76
2017-12-16T04:30:25.854Z,996.77
2017-12-16T04:31:35.644Z,996.81
2017-12-16T04:32:45.595Z,996.78
2017-12-16T04:33:55.269Z,996.76
2017-12-16T04:35:04.694Z,996.79
2017-12-16T04:36:14.377Z,996.79
2017-12-16T04:37:24.323Z,996.82
2017-12-16T04:38:34.524Z,996.83
2017-12-16T04:39:44.208Z,996.86
2017-12-16T04:40:53.943Z,996.82
2017-12-16T04:42:03.881Z,996.81
2017-12-16T04:43:13.577Z,996.82
2017-12-16T04:44:23.011Z,996.81
2017-12-16T04:45:32.963Z,996.81
2017-12-16T04:46:42.402Z,996.9
2017-12-16T04:47:51.826Z,996.87
2017-12-16T04:49:01.520Z,996.81
2017-12-16T04:50:10.955Z,996.84
2017-12-16T04:51:20.895Z,996.84
2017-12-16T04:52:30.854Z,996.84
2017-12-16T04:53:40.792Z,996.8
2017-12-16T04:54:50.725Z,996.86
2017-12-16T04:56:00.416Z,996.87
2017-12-16T04:57:10.098Z,996.8
2017-12-16T04:58:20.042Z,996.83
2017-12-16T04:59:29.462Z,996.87
2017-12-16T05:00:39.161Z,996.89
2017-12-16T05:01:48.906Z,996.89
2017-12-16T05:02:58.602Z,996.88
2017-12-16T05:04:08.284Z,996.91
2017-12-16T05:05:17.459Z,996.85
2017-12-16T05:06:27.140Z,996.86
2017-12-16T05:07:37.080Z,996.86
2017-12-16T05:08:47.017Z,996.91
2017-12-16T05:09:56.960Z,996.87
2017-12-16T05:11:06.659Z,996.87
2017-12-16T05:12:16.598Z,996.85
2017-12-16T05:13:26.528Z,996.88
2017-12-16T05:14:36.458Z,996.91
2017-12-16T05:15:46.146Z,996.84
2017-12-16T05:16:55.856Z,996.85
2017-12-16T05:18:05.278Z,996.88
2017-12-16T05:19:14.964Z,996.88
2017-12-16T05:20:24.915Z,996.9
2017-12-16T05:21:34.854Z,996.94
2017-12-16T05:22:44.533Z,996.93
2017-12-16T05:23:54.505Z,996.99
2017-12-16T05:25:04.451Z,996.95
2017-12-16T05:26:14.156Z,996.93
2017-12-16T05:27:23.337Z,996.95
2017-12-16T05:28:32.771Z,996.96
2017-12-16T05:29:42.194Z,996.95
2017-12-16T05:30:52.136Z,996.93
2017-12-16T05:32:01.845Z,996.95
2017-12-16T05:33:11.273Z,997
2017-12-16T05:34:20.978Z,996.95
2017-12-16T05:35:30.669Z,997
2017-12-16T05:36:40.608Z,997.02
2017-12-16T05:37:50.554Z,997.02
2017-12-16T05:39:00.247Z,997.05
2017-12-16T05:40:10.190Z,997.04
2017-12-16T05:41:19.873Z,997.1
2017-12-16T05:42:29.815Z,997.12
2017-12-16T05:43:38.980Z,997.11
2017-12-16T05:44:48.661Z,997.2
2017-12-16T05:45:58.075Z,997.19
2017-12-16T05:47:07.754Z,997.22
2017-12-16T05:48:17.502Z,997.22
2017-12-16T05:49:27.440Z,997.25
2017-12-16T05:50:37.118Z,997.17
2017-12-16T05:51:46.811Z,997.23
2017-12-16T05:52:56.493Z,997.16
2017-12-16T05:54:05.932Z,997.21
2017-12-16T05:55:15.624Z,997.17
2017-12-16T05:56:25.051Z,997.26
2017-12-16T05:57:34.494Z,997.29
2017-12-16T05:58:44.174Z,997.22
2017-12-16T05:59:54.122Z,997.29
2017-12-16T06:01:03.549Z,997.24
2017-12-16T06:02:13.235Z,997.27
2017-12-16T06:03:23.168Z,997.23
2017-12-16T06:04:32.604Z,997.28
2017-12-16T06:05:42.037Z,997.25
2017-12-16T06:06:51.975Z,997.24
2017-12-16T06:08:01.674Z,997.29
2017-12-16T06:09:11.412Z,997.3
2017-12-16T06:10:21.114Z,997.31
2017-12-16T06:11:31.049Z,997.27
2017-12-16T06:12:40.993Z,997.25
2017-12-16T06:13:50.929Z,997.28
2017-12-16T06:15:00.619Z,997.27
2017-12-16T06:16:10.293Z,997.29
2017-12-16T06:17:20.233Z,997.36
2017-12-16T06:18:30.167Z,997.43
2017-12-16T06:19:39.587Z,997.34
2017-12-16T06:20:49.017Z,997.38
2017-12-16T06:21:58.450Z,997.35
2017-12-16T06:23:08.127Z,997.38
2017-12-16T06:24:18.083Z,997.39
2017-12-16T06:25:28.049Z,997.4
2017-12-16T06:26:37.993Z,997.42
2017-12-16T06:27:47.686Z,997.43
2017-12-16T06:28:57.623Z,997.42
2017-12-16T06:30:07.059Z,997.45
2017-12-16T06:31:17.052Z,997.42
2017-12-16T06:32:26.772Z,997.4
2017-12-16T06:33:36.204Z,997.41
2017-12-16T06:34:46.143Z,997.34
2017-12-16T06:35:55.314Z,997.37
2017-12-16T06:37:05.008Z,997.4
2017-12-16T06:38:14.690Z,997.37
2017-12-16T06:39:24.388Z,997.39
2017-12-16T06:40:34.083Z,997.39
2017-12-16T06:41:44.012Z,997.38
2017-12-16T06:42:53.707Z,997.42
2017-12-16T06:44:03.645Z,997.43
2017-12-16T06:45:13.336Z,997.38
2017-12-16T06:46:23.276Z,997.42
2017-12-16T06:47:32.443Z,997.39
2017-12-16T06:48:42.126Z,997.42
2017-12-16T06:49:51.812Z,997.41
2017-12-16T06:51:01.246Z,997.43
2017-12-16T06:52:10.668Z,997.47
2017-12-16T06:53:20.097Z,997.47
2017-12-16T06:54:29.776Z,997.5
2017-12-16T06:55:39.447Z,997.5
2017-12-16T06:56:48.875Z,997.55
2017-12-16T06:57:58.815Z,997.5
2017-12-16T06:59:08.766Z,997.56
2017-12-16T07:00:18.466Z,997.58
2017-12-16T07:01:28.158Z,997.58
2017-12-16T07:02:38.106Z,997.65
2017-12-16T07:03:48.075Z,997.66
2017-12-16T07:04:57.783Z,997.7
2017-12-16T07:06:07.717Z,997.78
2017-12-16T07:07:17.170Z,997.76
2017-12-16T07:08:27.102Z,997.77
2017-12-16T07:09:37.034Z,997.8
2017-12-16T07:10:46.980Z,997.78
2017-12-16T07:11:56.682Z,997.79
2017-12-16T07:13:06.375Z,997.86
2017-12-16T07:14:16.053Z,997.82
2017-12-16T07:15:26.012Z,997.82
2017-12-16T07:16:35.971Z,997.83
2017-12-16T07:17:45.921Z,997.86
2017-12-16T07:18:55.675Z,997.87
2017-12-16T07:20:05.366Z,997.87
2017-12-16T07:21:15.086Z,997.9
2017-12-16T07:22:25.030Z,997.91
2017-12-16T07:23:34.706Z,998.01
2017-12-16T07:24:44.661Z,998.03
2017-12-16T07:25:54.627Z,998.01
2017-12-16T07:27:04.319Z,998.01
2017-12-16T07:28:14.009Z,998.01
2017-12-16T07:29:23.941Z,998.03
2017-12-16T07:30:33.620Z,998.03
2017-12-16T07:31:43.569Z,998.09
2017-12-16T07:32:53.272Z,998.09
2017-12-16T07:34:02.956Z,998.06
2017-12-16T07:35:12.490Z,998.07
2017-12-16T07:36:22.184Z,998.1
2017-12-16T07:37:31.884Z,998.11
2017-12-16T07:38:41.832Z,998.1
2017-12-16T07:39:51.783Z,998.14
2017-12-16T07:41:01.483Z,998.15
2017-12-16T07:42:11.428Z,998.16
2017-12-16T07:43:21.116Z,998.1
2017-12-16T07:44:31.072Z,998.12
2017-12-16T07:45:40.752Z,998.08
2017-12-16T07:46:50.432Z,998.1
2017-12-16T07:48:00.381Z,998.1
2017-12-16T07:49:10.071Z,998.12
2017-12-16T07:50:20.028Z,998.14
2017-12-16T07:51:29.988Z,998.17
2017-12-16T07:52:39.682Z,998.15
2017-12-16T07:53:49.684Z,998.17
2017-12-16T07:54:59.125Z,998.23
2017-12-16T07:56:08.619Z,998.16
2017-12-16T07:57:18.584Z,998.21
2017-12-16T07:58:28.300Z,998.2
2017-12-16T07:59:38.248Z,998.17
2017-12-16T08:00:47.938Z,998.21
2017-12-16T08:01:57.629Z,998.17
2017-12-16T08:03:07.570Z,998.15
2017-12-16T08:04:17.499Z,998.21
2017-12-16T08:05:27.181Z,998.18
2017-12-16T08:06:37.193Z,998.23
2017-12-16T08:07:46.884Z,998.2
2017-12-16T08:08:56.843Z,998.25
2017-12-16T08:10:06.793Z,998.23
2017-12-16T08:11:16.491Z,998.24
2017-12-16T08:12:26.442Z,998.26
2017-12-16T08:13:36.383Z,998.3
2017-12-16T08:14:45.560Z,998.31
2017-12-16T08:15:55.671Z,998.35
2017-12-16T08:17:05.617Z,998.35
2017-12-16T08:18:15.406Z,998.36
2017-12-16T08:19:25.428Z,998.41
2017-12-16T08:20:35.128Z,998.44
2017-12-16T08:21:44.822Z,998.45
2017-12-16T08:22:54.252Z,998.48
2017-12-16T08:24:04.211Z,998.51
2017-12-16T08:25:13.911Z,998.57
2017-12-16T08:26:23.853Z,998.58
2017-12-16T08:27:33.801Z,998.6
2017-12-16T08:28:43.605Z,998.62
2017-12-16T08:29:53.291Z,998.63
2017-12-16T08:31:03.231Z,998.69
2017-12-16T08:32:13.181Z,998.71
2017-12-16T08:33:22.600Z,998.72
2017-12-16T08:34:32.545Z,998.78
2017-12-16T08:35:42.246Z,998.73
2017-12-16T08:36:52.191Z,998.81
2017-12-16T08:38:02.145Z,998.81
2017-12-16T08:39:11.823Z,998.83
2017-12-16T08:40:21.515Z,998.9
2017-12-16T08:41:31.194Z,998.87
2017-12-16T08:42:41.131Z,999.04
2017-12-16T08:43:50.869Z,999.01
2017-12-16T08:45:00.895Z,999
2017-12-16T08:46:10.340Z,999.06
2017-12-16T08:47:20.288Z,999.02
2017-12-16T08:48:29.745Z,998.96
2017-12-16T08:49:39.705Z,999.01
2017-12-16T08:50:49.119Z,999.03
2017-12-16T08:51:59.063Z,999.01
2017-12-16T08:53:09.036Z,999.11
2017-12-16T08:54:18.965Z,999.06
2017-12-16T08:55:28.647Z,999.12
2017-12-16T08:56:38.615Z,999.18
2017-12-16T08:57:48.817Z,999.21
2017-12-16T08:58:58.774Z,999.17
2017-12-16T09:00:08.465Z,999.21
2017-12-16T09:01:18.152Z,999.28
2017-12-16T09:02:27.578Z,999.27
2017-12-16T09:03:37.286Z,999.29
2017-12-16T09:04:47.231Z,999.29
2017-12-16T09:05:56.938Z,999.27
2017-12-16T09:07:06.906Z,999.32
2017-12-16T09:08:16.334Z,999.28
2017-12-16T09:09:26.330Z,999.33
2017-12-16T09:10:36.023Z,999.34
2017-12-16T09:11:45.704Z,999.37
2017-12-16T09:12:55.662Z,999.33
2017-12-16T09:14:05.350Z,999.34
2017-12-16T09:15:15.298Z,999.41
2017-12-16T09:16:24.979Z,999.34
2017-12-16T09:17:34.938Z,999.41
2017-12-16T09:18:44.128Z,999.34
2017-12-16T09:19:54.084Z,999.39
2017-12-16T09:21:03.777Z,999.41
2017-12-16T09:22:13.212Z,999.4
2017-12-16T09:23:23.167Z,999.46
2017-12-16T09:24:32.874Z,999.41
2017-12-16T09:25:42.832Z,999.41
2017-12-16T09:26:53.038Z,999.42
2017-12-16T09:28:02.747Z,999.43
2017-12-16T09:29:12.169Z,999.46
2017-12-16T09:30:22.124Z,999.48
2017-12-16T09:31:32.071Z,999.5
2017-12-16T09:32:42.009Z,999.48
2017-12-16T09:33:51.688Z,999.55
2017-12-16T09:35:01.384Z,999.45
2017-12-16T09:36:11.076Z,999.49
2017-12-16T09:37:20.779Z,999.49
2017-12-16T09:38:30.742Z,999.47
2017-12-16T09:39:40.696Z,999.45
2017-12-16T09:40:50.396Z,999.49
2017-12-16T09:42:00.135Z,999.51
2017-12-16T09:43:09.828Z,999.56
2017-12-16T09:44:19.536Z,999.42
2017-12-16T09:45:29.222Z,999.52
2017-12-16T09:46:39.190Z,999.44
2017-12-16T09:47:48.620Z,999.45
2017-12-16T09:48:58.322Z,999.46
2017-12-16T09:50:08.273Z,999.43
2017-12-16T09:51:18.235Z,999.39
2017-12-16T09:52:27.665Z,999.39
2017-12-16T09:53:37.639Z,999.41
2017-12-16T09:54:47.609Z,999.39
2017-12-16T09:55:57.283Z,999.42
2017-12-16T09:57:07.224Z,999.42
2017-12-16T09:58:16.937Z,999.44
2017-12-16T09:59:26.356Z,999.47
2017-12-16T10:00:36.307Z,999.51
2017-12-16T10:01:46.261Z,999.41
2017-12-16T10:02:55.952Z,999.43
2017-12-16T10:04:05.643Z,999.44
2017-12-16T10:05:15.415Z,999.35
2017-12-16T10:06:25.361Z,999.38
2017-12-16T10:07:35.330Z,999.35
2017-12-16T10:08:45.095Z,999.32
2017-12-16T10:09:54.283Z,999.32
2017-12-16T10:11:04.237Z,999.3
2017-12-16T10:12:13.928Z,999.27
2017-12-16T10:13:23.887Z,999.28
2017-12-16T10:14:33.577Z,999.34
2017-12-16T10:15:43.520Z,999.29
2017-12-16T10:16:53.482Z,999.32
2017-12-16T10:18:03.200Z,999.3
2017-12-16T10:19:13.149Z,999.36
2017-12-16T10:20:22.589Z,999.36
2017-12-16T10:21:32.275Z,999.3
2017-12-16T10:22:41.979Z,999.34
2017-12-16T10:23:51.668Z,999.36
2017-12-16T10:25:01.097Z,999.35
2017-12-16T10:26:11.044Z,999.39
2017-12-16T10:27:20.739Z,999.37
2017-12-16T10:28:30.450Z,999.36
2017-12-16T10:29:40.400Z,999.37
2017-12-16T10:30:49.608Z,999.36
2017-12-16T10:31:59.565Z,999.29
2017-12-16T10:33:09.521Z,999.32
2017-12-16T10:34:19.482Z,999.31
2017-12-16T10:35:29.195Z,999.33
2017-12-16T10:36:39.152Z,999.33
2017-12-16T10:37:48.841Z,999.32
2017-12-16T10:38:58.575Z,999.38
2017-12-16T10:40:08.518Z,999.37
2017-12-16T10:41:18.476Z,999.39
2017-12-16T10:42:28.171Z,999.42
2017-12-16T10:43:37.873Z,999.42
2017-12-16T10:44:47.580Z,999.46
2017-12-16T10:45:57.527Z,999.45
2017-12-16T10:47:07.212Z,999.47
2017-12-16T10:48:17.155Z,999.53
2017-12-16T10:49:26.872Z,999.49
2017-12-16T10:50:36.817Z,999.49
2017-12-16T10:51:46.755Z,999.5
2017-12-16T10:52:56.188Z,999.53
2017-12-16T10:54:06.120Z,999.52
2017-12-16T10:55:15.561Z,999.54
2017-12-16T10:56:25.604Z,999.52
2017-12-16T10:57:35.040Z,999.58
2017-12-16T10:58:44.743Z,999.59
2017-12-16T10:59:54.756Z,999.65
2017-12-16T11:01:04.988Z,999.62
2017-12-16T11:02:14.434Z,999.61
2017-12-16T11:03:24.129Z,999.66
2017-12-16T11:04:33.815Z,999.69
2017-12-16T11:05:43.508Z,999.64
2017-12-16T11:06:53.447Z,999.61
2017-12-16T11:08:03.385Z,999.66
2017-12-16T11:09:13.125Z,999.71
2017-12-16T11:10:23.066Z,999.69
2017-12-16T11:11:32.501Z,999.72
2017-12-16T11:12:42.450Z,999.71
2017-12-16T11:13:52.154Z,999.76
2017-12-16T11:15:01.603Z,999.71
2017-12-16T11:16:11.552Z,999.76
2017-12-16T11:17:21.497Z,999.83
2017-12-16T11:18:31.435Z,999.84
2017-12-16T11:19:41.383Z,999.79
2017-12-16T11:20:51.340Z,999.76
2017-12-16T11:22:01.125Z,999.78
2017-12-16T11:23:10.822Z,999.84
2017-12-16T11:24:20.781Z,999.82
2017-12-16T11:25:30.741Z,999.88
2017-12-16T11:26:40.683Z,999.91
2017-12-16T11:27:50.626Z,999.85
2017-12-16T11:29:00.582Z,999.81
2017-12-16T11:30:10.536Z,999.83
2017-12-16T11:31:19.982Z,999.89
2017-12-16T11:32:29.963Z,999.94
2017-12-16T11:33:39.912Z,999.91
2017-12-16T11:34:49.873Z,999.96
2017-12-16T11:35:59.821Z,999.92
2017-12-16T11:37:09.639Z,999.92
2017-12-16T11:38:19.155Z,999.9
2017-12-16T11:39:29.106Z,999.86
2017-12-16T11:40:38.540Z,999.84
2017-12-16T11:41:48.496Z,999.89
2017-12-16T11:42:58.192Z,999.87
2017-12-16T11:44:07.671Z,1000
2017-12-16T11:45:17.104Z,999.96
2017-12-16T11:46:27.058Z,999.95
2017-12-16T11:47:36.999Z,999.99
2017-12-16T11:48:46.712Z,1000
2017-12-16T11:49:56.669Z,999.97
2017-12-16T11:51:06.362Z,999.95
2017-12-16T11:52:16.044Z,999.98
2017-12-16T11:53:25.764Z,999.99
2017-12-16T11:54:35.483Z,1000
2017-12-16T11:55:45.455Z,999.99
2017-12-16T11:56:55.400Z,1000.04
2017-12-16T11:58:04.914Z,999.97
2017-12-16T11:59:14.361Z,999.96
2017-12-16T12:00:24.305Z,1000.1
2017-12-16T12:01:34.252Z,1000.15
2017-12-16T12:02:43.674Z,1000.02
2017-12-16T12:03:53.363Z,1000.07
2017-12-16T12:05:03.301Z,1000.06
2017-12-16T12:06:13.009Z,1000.01
2017-12-16T12:07:22.950Z,1000
2017-12-16T12:08:32.385Z,1000.05
2017-12-16T12:09:42.346Z,1000.16
2017-12-16T12:10:52.323Z,1000.12
2017-12-16T12:12:01.779Z,1000.12
2017-12-16T12:13:11.755Z,1000.18
2017-12-16T12:14:21.446Z,1000.17
2017-12-16T12:15:31.140Z,1000.13
2017-12-16T12:16:40.313Z,1000.14
2017-12-16T12:17:50.255Z,1000.1
2017-12-16T12:19:00.205Z,1000.17
2017-12-16T12:20:10.168Z,1000.11
2017-12-16T12:21:19.869Z,1000.16
2017-12-16T12:22:29.802Z,1000.22
2017-12-16T12:23:39.246Z,1000.19
2017-12-16T12:24:49.196Z,1000.2
2017-12-16T12:25:59.140Z,1000.16
2017-12-16T12:27:09.101Z,1000.26
2017-12-16T12:28:19.041Z,1000.17
2017-12-16T12:29:28.465Z,1000.25
2017-12-16T12:30:38.412Z,1000.22
2017-12-16T12:31:47.846Z,1000.13
2017-12-16T12:32:57.786Z,1000.22
2017-12-16T12:34:07.728Z,1000.31
2017-12-16T12:35:17.674Z,1000.31
2017-12-16T12:36:27.362Z,1000.35
2017-12-16T12:37:37.364Z,1000.22
2017-12-16T12:38:47.062Z,1000.35
2017-12-16T12:39:56.766Z,1000.31
2017-12-16T12:41:06.739Z,1000.28
2017-12-16T12:42:16.437Z,1000.32
2017-12-16T12:43:26.133Z,1000.38
2017-12-16T12:44:35.836Z,1000.3
2017-12-16T12:45:45.518Z,1000.32
2017-12-16T12:46:55.275Z,1000.42
2017-12-16T12:48:05.229Z,1000.41
2017-12-16T12:49:14.662Z,1000.35
2017-12-16T12:50:24.612Z,1000.45
2017-12-16T12:51:34.312Z,1000.42
2017-12-16T12:52:44.261Z,1000.39
2017-12-16T12:53:53.942Z,1000.34
2017-12-16T12:55:03.460Z,1000.44
2017-12-16T12:56:13.152Z,1000.43
2017-12-16T12:57:23.112Z,1000.52
2017-12-16T12:58:32.548Z,1000.46
2017-12-16T12:59:42.529Z,1000.48
2017-12-16T13:00:52.486Z,1000.63
2017-12-16T13:02:02.173Z,1000.4
2017-12-16T13:03:11.853Z,1000.47
2017-12-16T13:04:21.842Z,1000.47
2017-12-16T13:05:31.535Z,1000.45
2017-12-16T13:06:41.486Z,1000.46
2017-12-16T13:07:51.199Z,1000.49
2017-12-16T13:09:01.145Z,1000.51
2017-12-16T13:10:10.577Z,1000.48
2017-12-16T13:11:20.265Z,1000.49
2017-12-16T13:12:30.228Z,1000.56
2017-12-16T13:13:39.914Z,1000.58
2017-12-16T13:14:49.605Z,1000.6
2017-12-16T13:15:59.297Z,1000.64
2017-12-16T13:17:08.723Z,1000.5
2017-12-16T13:18:18.484Z,1000.62
2017-12-16T13:19:28.445Z,1000.61
2017-12-16T13:20:38.400Z,1000.61
2017-12-16T13:21:48.359Z,1000.6
2017-12-16T13:22:58.047Z,1000.63
2017-12-16T13:24:07.471Z,1000.67
2017-12-16T13:25:17.434Z,1000.69
2017-12-16T13:26:27.389Z,1000.72
2017-12-16T13:27:37.091Z,1000.76
2017-12-16T13:28:46.785Z,1000.73
2017-12-16T13:29:56.474Z,1000.77
2017-12-16T13:31:06.163Z,1000.89
2017-12-16T13:32:16.132Z,1000.89
2017-12-16T13:33:26.080Z,1000.78
2017-12-16T13:34:35.537Z,1000.84
2017-12-16T13:35:45.225Z,1000.82
2017-12-16T13:36:54.662Z,1000.81
2017-12-16T13:38:04.347Z,1000.82
2017-12-16T13:39:14.541Z,1000.83
2017-12-16T13:40:23.713Z,1000.83
2017-12-16T13:41:33.655Z,1000.87
2017-12-16T13:42:43.754Z,1000.86
2017-12-16T13:43:53.448Z,1000.79
2017-12-16T13:45:03.409Z,1000.76
2017-12-16T13:46:13.102Z,1000.88
2017-12-16T13:47:23.042Z,1000.83
2017-12-16T13:48:32.475Z,1000.92
2017-12-16T13:49:42.412Z,1000.88
2017-12-16T13:50:52.460Z,1000.9
2017-12-16T13:52:02.402Z,1000.98
2017-12-16T13:53:11.830Z,1000.95
2017-12-16T13:54:21.779Z,1000.97
2017-12-16T13:55:31.771Z,1000.96
2017-12-16T13:56:41.466Z,1000.98
2017-12-16T13:57:50.653Z,1000.91
2017-12-16T13:59:00.346Z,1000.96
2017-12-16T14:00:10.039Z,1000.96
2017-12-16T14:01:19.745Z,1000.97
2017-12-16T14:02:29.178Z,1001
2017-12-16T14:03:38.603Z,1001.01
2017-12-16T14:04:47.785Z,1001
2017-12-16T14:05:57.729Z,1001.03
2017-12-16T14:07:06.925Z,1001.06
2017-12-16T14:08:16.621Z,1001.01
2017-12-16T14:09:26.309Z,1001.04
2017-12-16T14:10:35.996Z,1001.08
2017-12-16T14:11:45.683Z,1001.12
2017-12-16T14:12:55.633Z,1001.13
2017-12-16T14:14:05.062Z,1001.1
2017-12-16T14:15:14.505Z,1001.22
2017-12-16T14:16:24.191Z,1001.27
2017-12-16T14:17:33.369Z,1001.13
2017-12-16T14:18:43.313Z,1001.15
2017-12-16T14:19:53.267Z,1001.19
2017-12-16T14:21:03.237Z,1001.15
2017-12-16T14:22:13.184Z,1001.21
2017-12-16T14:23:22.887Z,1001.24
2017-12-16T14:24:32.829Z,1001.24
2017-12-16T14:25:42.776Z,1001.27
2017-12-16T14:26:52.723Z,1001.26
2017-12-16T14:28:02.663Z,1001.26
2017-12-16T14:29:12.621Z,1001.28